createdAt,value
2023-01-04T00:00:11.401Z,95.24
2023-01-04T00:01:11.384Z,95.14
2023-01-04T00:02:11.498Z,94.93
2023-01-04T00:03:11.540Z,95.65
2023-01-04T00:04:11.350Z,95.65
2023-01-04T00:05:11.339Z,95.34
2023-01-04T00:06:11.348Z,95.24
2023-01-04T00:07:11.327Z,95.39
2023-01-04T00:08:11.311Z,95.49
2023-01-04T00:09:11.310Z,94.82
2023-01-04T00:10:11.348Z,95.86
2023-01-04T00:11:11.306Z,94.87
2023-01-04T00:12:11.299Z,94.45
2023-01-04T00:13:11.291Z,94.66
2023-01-04T00:14:11.270Z,95.28
2023-01-04T00:15:11.294Z,95.28
2023-01-04T00:16:11.318Z,95.49
2023-01-04T00:17:12.173Z,96.42
2023-01-04T00:18:11.262Z,96.11
2023-01-04T00:19:11.225Z,96.11
2023-01-04T00:20:11.218Z,96.31
2023-01-04T00:21:11.217Z,95.86
2023-01-04T00:22:11.211Z,96.06
2023-01-04T00:23:11.195Z,95.86
2023-01-04T00:24:11.207Z,95.75
2023-01-04T00:25:11.182Z,95.90
2023-01-04T00:27:02.762Z,95.80
2023-01-04T00:28:02.755Z,95.59
2023-01-04T00:29:02.795Z,95.70
2023-01-04T00:30:02.742Z,95.59
2023-01-04T00:31:03.911Z,95.39
2023-01-04T00:32:03.829Z,95.39
2023-01-04T00:33:03.812Z,95.07
2023-01-04T00:34:03.803Z,95.64
2023-01-04T00:35:03.787Z,95.95
2023-01-04T00:36:03.803Z,95.64
2023-01-04T00:37:03.795Z,95.84
2023-01-04T00:38:03.777Z,95.64
2023-01-04T00:39:03.792Z,96.05
2023-01-04T00:40:03.749Z,96.05
2023-01-04T00:41:03.784Z,96.15
2023-01-04T00:42:03.733Z,95.84
2023-01-04T00:43:03.742Z,96.05
2023-01-04T00:44:03.741Z,96.88
2023-01-04T00:45:03.730Z,97.29
2023-01-04T00:46:03.755Z,97.25
2023-01-04T00:47:03.714Z,97.25
2023-01-04T00:48:03.704Z,96.31
2023-01-04T00:49:03.691Z,96.21
2023-01-04T00:50:03.683Z,96.11
2023-01-04T00:51:03.705Z,96.01
2023-01-04T00:52:03.667Z,95.90
2023-01-04T00:53:03.661Z,95.39
2023-01-04T00:54:03.658Z,95.03
2023-01-04T00:55:03.652Z,95.59
2023-01-04T00:56:03.637Z,94.51
2023-01-04T00:57:03.633Z,93.89
2023-01-04T00:58:03.619Z,94.35
2023-01-04T00:59:03.641Z,94.10
2023-01-04T01:00:03.611Z,94.35
2023-01-04T01:01:03.620Z,94.51
2023-01-04T01:02:04.435Z,94.20
2023-01-04T01:03:03.809Z,94.82
2023-01-04T01:04:03.638Z,94.82
2023-01-04T01:05:03.575Z,94.14
2023-01-04T01:06:03.597Z,94.76
2023-01-04T01:07:03.554Z,94.35
2023-01-04T01:08:03.562Z,94.66
2023-01-04T01:09:03.545Z,94.56
2023-01-04T01:10:03.546Z,94.35
2023-01-04T01:11:03.530Z,94.04
2023-01-04T01:12:03.508Z,94.20
2023-01-04T01:13:03.956Z,94.10
2023-01-04T01:14:03.502Z,94.35
2023-01-04T01:15:03.496Z,94.24
2023-01-04T01:16:03.516Z,94.35
2023-01-04T01:17:03.564Z,94.45
2023-01-04T01:18:03.463Z,94.56
2023-01-04T01:19:03.465Z,94.35
2023-01-04T01:20:03.475Z,94.45
2023-01-04T01:21:03.440Z,94.66
2023-01-04T01:22:03.429Z,94.39
2023-01-04T01:23:03.464Z,94.56
2023-01-04T01:24:03.426Z,94.97
2023-01-04T01:25:04.423Z,94.56
2023-01-04T01:26:03.426Z,94.76
2023-01-04T01:27:03.399Z,94.97
2023-01-04T01:28:03.406Z,94.87
2023-01-04T01:29:03.393Z,94.91
2023-01-04T01:30:03.400Z,94.76
2023-01-04T01:31:08.394Z,94.60
2023-01-04T01:32:05.349Z,94.97
2023-01-04T01:33:03.352Z,94.60
2023-01-04T01:34:03.382Z,94.18
2023-01-04T01:35:03.344Z,94.81
2023-01-04T01:36:03.322Z,94.08
2023-01-04T01:37:03.365Z,95.68
2023-01-04T01:38:03.324Z,95.37
2023-01-04T01:39:03.297Z,95.95
2023-01-04T01:40:03.291Z,95.89
2023-01-04T01:41:03.312Z,95.64
2023-01-04T01:42:03.421Z,95.57
2023-01-04T01:43:03.270Z,95.57
2023-01-04T01:44:03.271Z,95.37
2023-01-04T01:45:03.282Z,95.16
2023-01-04T01:46:04.263Z,95.89
2023-01-04T01:47:03.394Z,95.78
2023-01-04T01:48:03.255Z,95.89
2023-01-04T01:49:03.252Z,96.09
2023-01-04T01:50:03.252Z,95.72
2023-01-04T01:51:03.216Z,96.20
2023-01-04T01:52:03.233Z,96.41
2023-01-04T01:53:03.185Z,96.14
2023-01-04T01:54:03.202Z,96.09
2023-01-04T01:55:03.206Z,96.72
2023-01-04T01:56:03.160Z,96.34
2023-01-04T01:57:03.179Z,96.41
2023-01-04T01:58:03.180Z,96.09
2023-01-04T01:59:03.157Z,96.14
2023-01-04T02:00:03.907Z,96.14
2023-01-04T02:01:03.138Z,96.51
2023-01-04T02:02:03.284Z,97.24
2023-01-04T02:03:03.221Z,96.41
2023-01-04T02:04:03.194Z,96.55
2023-01-04T02:05:03.127Z,96.24
2023-01-04T02:06:03.113Z,96.66
2023-01-04T02:07:03.080Z,96.34
2023-01-04T02:08:03.087Z,96.76
2023-01-04T02:09:03.078Z,96.97
2023-01-04T02:10:03.846Z,97.49
2023-01-04T02:11:03.083Z,97.28
2023-01-04T02:12:03.067Z,96.55
2023-01-04T02:13:03.047Z,96.55
2023-01-04T02:14:03.073Z,96.24
2023-01-04T02:15:03.044Z,96.45
2023-01-04T02:16:03.099Z,96.34
2023-01-04T02:17:03.018Z,96.24
2023-01-04T02:18:03.019Z,96.39
2023-01-04T02:19:03.830Z,96.50
2023-01-04T02:20:03.002Z,96.29
2023-01-04T02:21:02.979Z,97.02
2023-01-04T02:22:02.981Z,97.33
2023-01-04T02:23:02.974Z,97.43
2023-01-04T02:24:02.962Z,97.22
2023-01-04T02:25:02.958Z,97.28
2023-01-04T02:26:02.951Z,97.07
2023-01-04T02:27:02.972Z,97.53
2023-01-04T02:28:02.925Z,97.43
2023-01-04T02:29:02.930Z,97.53
2023-01-04T02:30:02.907Z,97.43
2023-01-04T02:31:02.973Z,97.43
2023-01-04T02:32:04.422Z,97.12
2023-01-04T02:33:02.889Z,97.02
2023-01-04T02:34:02.885Z,97.22
2023-01-04T02:35:02.865Z,97.12
2023-01-04T02:36:02.889Z,97.64
2023-01-04T02:37:02.876Z,97.47
2023-01-04T02:38:02.851Z,97.64
2023-01-04T02:39:02.850Z,97.53
2023-01-04T02:40:02.835Z,97.43
2023-01-04T02:41:02.825Z,97.53
2023-01-04T02:42:03.824Z,97.64
2023-01-04T02:43:02.820Z,97.12
2023-01-04T02:44:02.807Z,97.37
2023-01-04T02:45:02.798Z,97.43
2023-01-04T21:26:11.012Z,86.96
2023-01-04T21:27:10.974Z,87.53
2023-01-04T21:28:10.989Z,87.47
2023-01-04T21:29:10.972Z,87.47
2023-01-04T21:30:10.950Z,87.37
2023-01-04T21:31:10.997Z,87.73
2023-01-04T21:32:10.930Z,87.63
2023-01-04T21:33:12.047Z,87.77
2023-01-04T21:34:14.425Z,88.18
2023-01-04T21:35:14.032Z,88.59
2023-01-04T21:36:12.011Z,89.11
2023-01-04T21:37:45.116Z,89.61
2023-01-04T21:38:11.993Z,90.29
2023-01-04T21:39:11.973Z,90.58
2023-01-04T21:41:18.867Z,91.25
2023-01-04T21:42:18.833Z,91.09
2023-01-04T21:43:18.825Z,91.60
2023-01-04T21:44:18.816Z,91.80
2023-01-04T21:45:18.809Z,92.32
2023-01-04T21:46:19.968Z,91.50
2023-01-04T21:47:19.887Z,91.91
2023-01-04T21:48:19.873Z,91.91
2023-01-04T21:49:19.867Z,92.15
2023-01-04T21:50:19.920Z,92.11
2023-01-04T21:51:19.850Z,92.32
2023-01-04T21:52:19.847Z,92.15
2023-01-04T21:53:20.713Z,91.74
2023-01-04T21:54:19.835Z,92.15
2023-01-04T21:55:20.791Z,92.05
2023-01-04T21:56:19.819Z,92.36
2023-01-04T21:57:19.854Z,92.25
2023-01-04T21:58:19.778Z,92.05
2023-01-04T21:59:20.773Z,91.95
2023-01-04T22:00:20.779Z,92.15
2023-01-04T22:01:19.839Z,92.05
2023-01-04T22:02:20.413Z,92.05
2023-01-04T22:03:20.289Z,91.95
2023-01-04T22:04:22.305Z,92.36
2023-01-04T22:05:19.731Z,92.01
2023-01-04T22:06:19.716Z,91.74
2023-01-04T22:07:19.746Z,91.64
2023-01-04T22:08:19.707Z,91.74
2023-01-04T22:09:19.694Z,92.05
2023-01-04T22:10:19.695Z,91.80
2023-01-04T22:11:19.675Z,92.05
2023-01-04T22:12:19.681Z,91.54
2023-01-04T22:13:21.810Z,91.33
2023-01-04T22:14:19.659Z,91.64
2023-01-04T22:15:19.643Z,91.60
2023-01-04T22:16:19.706Z,91.29
2023-01-04T22:17:20.303Z,91.19
2023-01-04T22:18:19.641Z,91.03
2023-01-04T22:19:19.617Z,90.68
2023-01-04T22:20:19.606Z,90.41
2023-01-04T22:21:19.606Z,91.03
2023-01-04T22:22:19.592Z,90.62
2023-01-04T22:23:19.593Z,90.92
2023-01-04T22:24:19.593Z,90.88
2023-01-04T22:25:20.283Z,90.72
2023-01-04T22:26:20.560Z,90.52
2023-01-04T22:27:19.546Z,90.37
2023-01-04T22:28:19.549Z,90.06
2023-01-04T22:29:19.541Z,90.17
2023-01-04T22:30:19.527Z,89.90
2023-01-04T22:32:27.189Z,90.06
2023-01-04T22:33:27.195Z,89.97
2023-01-04T22:34:28.105Z,89.86
2023-01-04T22:35:28.314Z,89.35
2023-01-04T22:36:31.058Z,89.25
2023-01-04T22:37:28.246Z,89.45
2023-01-04T22:38:28.264Z,89.25
2023-01-04T22:39:31.197Z,89.50
2023-01-04T22:40:32.161Z,89.50
2023-01-04T22:41:31.071Z,89.35
2023-01-04T22:42:28.209Z,89.15
2023-01-04T22:43:28.202Z,89.65
2023-01-04T22:44:28.217Z,89.35
2023-01-04T22:45:28.212Z,89.18
2023-01-04T22:46:28.338Z,89.04
2023-01-04T22:47:28.178Z,88.64
2023-01-04T22:48:28.167Z,88.78
2023-01-04T22:49:28.170Z,88.68
2023-01-04T22:50:28.142Z,88.64
2023-01-04T22:51:28.146Z,88.57
2023-01-04T22:52:28.132Z,88.74
2023-01-04T22:53:28.133Z,88.64
2023-01-04T22:54:28.127Z,88.12
2023-01-04T22:55:45.744Z,88.12
2023-01-04T22:56:30.142Z,88.02
2023-01-04T22:57:28.687Z,87.92
2023-01-04T22:58:28.083Z,87.71
2023-01-04T22:59:28.120Z,87.82
2023-01-04T23:00:28.069Z,87.61
2023-01-04T23:01:28.216Z,87.45
2023-01-04T23:02:28.114Z,87.71
2023-01-04T23:03:28.204Z,87.61
2023-01-04T23:04:28.109Z,87.61
2023-01-04T23:05:28.024Z,87.55
2023-01-04T23:06:28.024Z,86.69
2023-01-04T23:07:28.019Z,86.83
2023-01-04T23:08:29.820Z,86.79
2023-01-04T23:09:29.606Z,86.83
2023-01-04T23:10:28.000Z,85.97
2023-01-04T23:11:27.981Z,86.59
2023-01-04T23:12:27.972Z,86.08
2023-01-04T23:13:27.994Z,86.18
2023-01-04T23:14:27.949Z,86.12
2023-01-04T23:15:27.961Z,86.53
2023-01-04T23:16:32.787Z,86.08
2023-01-04T23:17:29.582Z,86.08
2023-01-04T23:18:27.913Z,85.67
2023-01-04T23:19:27.929Z,85.81
2023-01-04T23:20:29.573Z,85.47
2023-01-04T23:21:27.903Z,85.06
2023-01-04T23:22:27.882Z,86.08
2023-01-04T23:23:27.896Z,85.26
2023-01-04T23:24:27.867Z,85.77
2023-01-04T23:25:32.753Z,85.16
2023-01-04T23:26:27.865Z,85.47
2023-01-04T23:27:27.845Z,84.75
2023-01-04T23:28:27.826Z,85.47
2023-01-04T23:29:29.553Z,85.67
2023-01-04T23:30:28.822Z,85.57
2023-01-04T23:31:28.735Z,85.47
2023-01-04T23:32:28.711Z,85.36
2023-01-04T23:33:34.000Z,85.26
2023-01-04T23:34:29.794Z,84.44
2023-01-04T23:35:28.575Z,84.34
2023-01-04T23:36:27.788Z,84.65
2023-01-04T23:37:27.792Z,84.44
2023-01-04T23:38:27.755Z,84.03
2023-01-04T23:39:27.737Z,84.03
2023-01-04T23:40:27.729Z,83.93
2023-01-04T23:41:27.728Z,83.73
2023-01-04T23:42:27.720Z,84.03
2023-01-04T23:43:27.709Z,84.07
2023-01-04T23:44:27.696Z,83.93
2023-01-04T23:45:27.710Z,83.46
2023-01-04T23:46:28.763Z,83.87
2023-01-04T23:47:27.691Z,84.28
2023-01-04T23:48:27.680Z,84.07
2023-01-04T23:49:27.687Z,84.38
2023-01-04T23:50:27.779Z,83.66
2023-01-04T23:51:27.639Z,84.28
2023-01-04T23:52:27.678Z,84.28
2023-01-04T23:53:28.652Z,84.28
2023-01-04T23:54:28.612Z,84.28
2023-01-04T23:55:27.612Z,83.87
2023-01-04T23:56:27.614Z,84.17
2023-01-04T23:57:27.595Z,84.07
2023-01-04T23:58:28.151Z,83.56
2023-01-04T23:59:27.625Z,83.76
